sensor_id;sensor_type;location;lat;lon;timestamp;pressure;altitude;pressure_sealevel;temperature;humidity
72423;BME280;71399;54.146;38.734;2023-07-31T00:00:45;96918.00;;;15.00;100.00
72423;BME280;71399;54.146;38.734;2023-07-31T00:03:12;96930.81;;;14.98;100.00
72423;BME280;71399;54.146;38.734;2023-07-31T00:05:38;96928.78;;;14.95;100.00
72423;BME280;71399;54.146;38.734;2023-07-31T00:08:04;96940.94;;;14.96;100.00
72423;BME280;71399;54.146;38.734;2023-07-31T00:10:31;96930.81;;;14.90;100.00
72423;BME280;71399;54.146;38.734;2023-07-31T00:12:57;96942.69;;;14.92;100.00
72423;BME280;71399;54.146;38.734;2023-07-31T00:15:23;96938.66;;;14.86;100.00
72423;BME280;71399;54.146;38.734;2023-07-31T00:17:49;96955.00;;;14.88;100.00
72423;BME280;71399;54.146;38.734;2023-07-31T00:20:15;96947.38;;;14.87;100.00
72423;BME280;71399;54.146;38.734;2023-07-31T00:22:41;96957.53;;;14.85;100.00
72423;BME280;71399;54.146;38.734;2023-07-31T00:25:08;96951.50;;;14.75;100.00
72423;BME280;71399;54.146;38.734;2023-07-31T00:27:34;96969.75;;;14.77;100.00
72423;BME280;71399;54.146;38.734;2023-07-31T00:30:00;96986.28;;;14.74;100.00
72423;BME280;71399;54.146;38.734;2023-07-31T00:32:26;96998.91;;;14.77;100.00
72423;BME280;71399;54.146;38.734;2023-07-31T00:34:52;97007.50;;;14.74;100.00
72423;BME280;71399;54.146;38.734;2023-07-31T00:37:18;97006.56;;;14.70;100.00
72423;BME280;71399;54.146;38.734;2023-07-31T00:39:44;97009.84;;;14.67;100.00
72423;BME280;71399;54.146;38.734;2023-07-31T00:42:10;97024.47;;;14.73;100.00
72423;BME280;71399;54.146;38.734;2023-07-31T00:44:36;97025.44;;;14.68;100.00
72423;BME280;71399;54.146;38.734;2023-07-31T00:47:03;97035.88;;;14.64;100.00
72423;BME280;71399;54.146;38.734;2023-07-31T00:49:29;97041.50;;;14.63;100.00
72423;BME280;71399;54.146;38.734;2023-07-31T00:51:56;97049.31;;;14.59;100.00
72423;BME280;71399;54.146;38.734;2023-07-31T00:54:25;97044.47;;;14.53;100.00
72423;BME280;71399;54.146;38.734;2023-07-31T00:56:53;97055.22;;;14.56;100.00
72423;BME280;71399;54.146;38.734;2023-07-31T00:59:21;97052.56;;;14.56;100.00
72423;BME280;71399;54.146;38.734;2023-07-31T01:01:47;97064.72;;;14.57;100.00
72423;BME280;71399;54.146;38.734;2023-07-31T01:04:14;97072.53;;;14.62;100.00
72423;BME280;71399;54.146;38.734;2023-07-31T01:06:51;97076.75;;;14.63;100.00
72423;BME280;71399;54.146;38.734;2023-07-31T01:11:53;97099.50;;;14.64;100.00
72423;BME280;71399;54.146;38.734;2023-07-31T01:14:22;97108.41;;;14.60;100.00
72423;BME280;71399;54.146;38.734;2023-07-31T01:16:48;97116.84;;;14.62;100.00
72423;BME280;71399;54.146;38.734;2023-07-31T01:19:18;97124.47;;;14.63;100.00
72423;BME280;71399;54.146;38.734;2023-07-31T01:22:12;97117.47;;;14.59;100.00
72423;BME280;71399;54.146;38.734;2023-07-31T01:27:49;97120.09;;;14.68;100.00
72423;BME280;71399;54.146;38.734;2023-07-31T01:30:22;97121.66;;;14.60;100.00
72423;BME280;71399;54.146;38.734;2023-07-31T01:32:53;97138.06;;;14.62;100.00
72423;BME280;71399;54.146;38.734;2023-07-31T01:35:20;97146.91;;;14.57;100.00
72423;BME280;71399;54.146;38.734;2023-07-31T01:37:47;97140.03;;;14.56;100.00
72423;BME280;71399;54.146;38.734;2023-07-31T01:40:13;97151.13;;;14.58;100.00
72423;BME280;71399;54.146;38.734;2023-07-31T01:42:40;97148.28;;;14.55;100.00
72423;BME280;71399;54.146;38.734;2023-07-31T01:45:06;97153.78;;;14.58;100.00
72423;BME280;71399;54.146;38.734;2023-07-31T01:47:32;97152.06;;;14.62;100.00
72423;BME280;71399;54.146;38.734;2023-07-31T01:49:59;97146.44;;;14.55;100.00
72423;BME280;71399;54.146;38.734;2023-07-31T01:52:25;97155.81;;;14.61;100.00
72423;BME280;71399;54.146;38.734;2023-07-31T01:54:52;97157.38;;;14.62;100.00
72423;BME280;71399;54.146;38.734;2023-07-31T01:57:18;97155.19;;;14.64;100.00
72423;BME280;71399;54.146;38.734;2023-07-31T01:59:44;97164.84;;;14.78;100.00
72423;BME280;71399;54.146;38.734;2023-07-31T02:02:10;97161.72;;;14.85;100.00
72423;BME280;71399;54.146;38.734;2023-07-31T02:04:37;97154.41;;;14.90;100.00
72423;BME280;71399;54.146;38.734;2023-07-31T02:07:05;97155.19;;;14.91;100.00
72423;BME280;71399;54.146;38.734;2023-07-31T02:09:31;97154.69;;;14.97;100.00
72423;BME280;71399;54.146;38.734;2023-07-31T02:11:58;97150.78;;;15.04;100.00
72423;BME280;71399;54.146;38.734;2023-07-31T02:14:24;97164.19;;;15.16;100.00
72423;BME280;71399;54.146;38.734;2023-07-31T02:16:51;97168.84;;;15.19;100.00
72423;BME280;71399;54.146;38.734;2023-07-31T02:19:17;97178.53;;;15.24;100.00
72423;BME280;71399;54.146;38.734;2023-07-31T02:21:43;97177.09;;;15.26;100.00
72423;BME280;71399;54.146;38.734;2023-07-31T02:24:10;97174.28;;;15.31;100.00
72423;BME280;71399;54.146;38.734;2023-07-31T02:26:36;97182.69;;;15.33;100.00
72423;BME280;71399;54.146;38.734;2023-07-31T02:29:02;97179.72;;;15.35;100.00
72423;BME280;71399;54.146;38.734;2023-07-31T02:31:29;97205.47;;;15.43;100.00
72423;BME280;71399;54.146;38.734;2023-07-31T02:33:55;97195.00;;;15.47;100.00
72423;BME280;71399;54.146;38.734;2023-07-31T02:36:21;97197.16;;;15.53;100.00
72423;BME280;71399;54.146;38.734;2023-07-31T02:38:48;97187.94;;;15.60;100.00
72423;BME280;71399;54.146;38.734;2023-07-31T02:41:14;97181.81;;;15.68;100.00
72423;BME280;71399;54.146;38.734;2023-07-31T02:43:40;97150.09;;;15.71;100.00
72423;BME280;71399;54.146;38.734;2023-07-31T02:46:06;97160.66;;;15.89;100.00
72423;BME280;71399;54.146;38.734;2023-07-31T02:48:32;97146.72;;;15.92;100.00
72423;BME280;71399;54.146;38.734;2023-07-31T02:50:58;97159.00;;;16.05;100.00
72423;BME280;71399;54.146;38.734;2023-07-31T02:53:25;97149.28;;;16.09;100.00
72423;BME280;71399;54.146;38.734;2023-07-31T02:55:51;97149.88;;;16.15;100.00
72423;BME280;71399;54.146;38.734;2023-07-31T02:58:17;97152.81;;;16.22;100.00
72423;BME280;71399;54.146;38.734;2023-07-31T03:00:44;97155.59;;;16.26;100.00
72423;BME280;71399;54.146;38.734;2023-07-31T03:03:10;97159.03;;;16.26;100.00
72423;BME280;71399;54.146;38.734;2023-07-31T03:05:37;97145.03;;;16.17;100.00
72423;BME280;71399;54.146;38.734;2023-07-31T03:08:04;97165.16;;;16.18;100.00
72423;BME280;71399;54.146;38.734;2023-07-31T03:10:30;97158.47;;;16.12;100.00
72423;BME280;71399;54.146;38.734;2023-07-31T03:12:56;97164.16;;;16.10;100.00
72423;BME280;71399;54.146;38.734;2023-07-31T03:15:22;97185.84;;;16.13;100.00
72423;BME280;71399;54.146;38.734;2023-07-31T03:17:49;97196.03;;;16.10;100.00
72423;BME280;71399;54.146;38.734;2023-07-31T03:20:15;97195.75;;;16.03;100.00
72423;BME280;71399;54.146;38.734;2023-07-31T03:22:41;97210.84;;;16.11;100.00
72423;BME280;71399;54.146;38.734;2023-07-31T03:25:08;97199.78;;;16.09;100.00
72423;BME280;71399;54.146;38.734;2023-07-31T03:27:35;97203.63;;;16.21;100.00
72423;BME280;71399;54.146;38.734;2023-07-31T03:30:03;97201.41;;;16.23;100.00
72423;BME280;71399;54.146;38.734;2023-07-31T03:32:30;97191.97;;;16.34;100.00
72423;BME280;71399;54.146;38.734;2023-07-31T03:34:57;97175.31;;;16.46;100.00
72423;BME280;71399;54.146;38.734;2023-07-31T03:37:24;97173.34;;;16.55;100.00
72423;BME280;71399;54.146;38.734;2023-07-31T03:39:50;97178.88;;;16.71;100.00
72423;BME280;71399;54.146;38.734;2023-07-31T03:42:17;97186.44;;;16.81;100.00
72423;BME280;71399;54.146;38.734;2023-07-31T03:44:43;97178.47;;;17.02;100.00
72423;BME280;71399;54.146;38.734;2023-07-31T03:47:10;97189.66;;;17.29;100.00
72423;BME280;71399;54.146;38.734;2023-07-31T03:49:37;97188.25;;;17.44;100.00
72423;BME280;71399;54.146;38.734;2023-07-31T03:52:04;97183.25;;;17.43;100.00
72423;BME280;71399;54.146;38.734;2023-07-31T03:54:30;97185.47;;;17.53;100.00
72423;BME280;71399;54.146;38.734;2023-07-31T03:56:57;97193.69;;;17.60;100.00
72423;BME280;71399;54.146;38.734;2023-07-31T03:59:23;97190.38;;;17.63;100.00
72423;BME280;71399;54.146;38.734;2023-07-31T04:01:49;97193.78;;;17.64;100.00
72423;BME280;71399;54.146;38.734;2023-07-31T04:04:15;97180.38;;;17.60;100.00
72423;BME280;71399;54.146;38.734;2023-07-31T04:06:41;97185.81;;;17.64;100.00
72423;BME280;71399;54.146;38.734;2023-07-31T04:09:07;97253.38;;;17.59;100.00
72423;BME280;71399;54.146;38.734;2023-07-31T04:11:33;97267.72;;;17.54;100.00
72423;BME280;71399;54.146;38.734;2023-07-31T04:13:59;97271.34;;;17.50;100.00
72423;BME280;71399;54.146;38.734;2023-07-31T04:16:26;97265.09;;;17.46;100.00
72423;BME280;71399;54.146;38.734;2023-07-31T04:18:52;97246.56;;;17.37;100.00
72423;BME280;71399;54.146;38.734;2023-07-31T04:21:18;97241.69;;;17.39;100.00
72423;BME280;71399;54.146;38.734;2023-07-31T04:23:44;97244.34;;;17.39;100.00
72423;BME280;71399;54.146;38.734;2023-07-31T04:26:10;97230.25;;;17.38;100.00
72423;BME280;71399;54.146;38.734;2023-07-31T04:28:36;97246.56;;;17.37;100.00
72423;BME280;71399;54.146;38.734;2023-07-31T04:39:04;97328.88;;;17.63;100.00
72423;BME280;71399;54.146;38.734;2023-07-31T04:41:30;97305.34;;;17.99;100.00
72423;BME280;71399;54.146;38.734;2023-07-31T04:43:56;97382.97;;;18.80;100.00
72423;BME280;71399;54.146;38.734;2023-07-31T04:46:22;97497.75;;;18.92;100.00
72423;BME280;71399;54.146;38.734;2023-07-31T04:48:49;97509.16;;;18.80;100.00
72423;BME280;71399;54.146;38.734;2023-07-31T04:51:15;97539.34;;;18.93;100.00
72423;BME280;71399;54.146;38.734;2023-07-31T04:53:41;97479.28;;;18.99;100.00
72423;BME280;71399;54.146;38.734;2023-07-31T04:56:07;97460.25;;;19.01;100.00
72423;BME280;71399;54.146;38.734;2023-07-31T04:58:33;97464.19;;;18.91;100.00
72423;BME280;71399;54.146;38.734;2023-07-31T05:00:59;97444.25;;;18.88;100.00
72423;BME280;71399;54.146;38.734;2023-07-31T05:03:25;97478.28;;;18.92;100.00
72423;BME280;71399;54.146;38.734;2023-07-31T05:05:52;97467.19;;;18.90;100.00
72423;BME280;71399;54.146;38.734;2023-07-31T05:08:18;97457.38;;;18.94;100.00
72423;BME280;71399;54.146;38.734;2023-07-31T05:10:44;97393.97;;;18.91;100.00
72423;BME280;71399;54.146;38.734;2023-07-31T05:13:10;97438.59;;;18.90;100.00
72423;BME280;71399;54.146;38.734;2023-07-31T05:15:36;97464.94;;;18.92;100.00
72423;BME280;71399;54.146;38.734;2023-07-31T05:18:02;97470.06;;;18.97;100.00
72423;BME280;71399;54.146;38.734;2023-07-31T05:20:29;97481.63;;;19.25;100.00
72423;BME280;71399;54.146;38.734;2023-07-31T05:22:55;97555.63;;;19.62;100.00
72423;BME280;71399;54.146;38.734;2023-07-31T05:25:21;97569.84;;;20.03;100.00
72423;BME280;71399;54.146;38.734;2023-07-31T05:27:47;97620.56;;;20.40;100.00
72423;BME280;71399;54.146;38.734;2023-07-31T05:30:13;97653.22;;;20.74;100.00
72423;BME280;71399;54.146;38.734;2023-07-31T05:32:39;97705.97;;;20.86;100.00
72423;BME280;71399;54.146;38.734;2023-07-31T05:35:05;97744.06;;;20.67;100.00
72423;BME280;71399;54.146;38.734;2023-07-31T05:37:32;97722.06;;;20.61;100.00
72423;BME280;71399;54.146;38.734;2023-07-31T05:39:58;97778.41;;;20.52;100.00
72423;BME280;71399;54.146;38.734;2023-07-31T05:42:24;97809.41;;;20.41;100.00
72423;BME280;71399;54.146;38.734;2023-07-31T05:44:50;97774.50;;;20.50;100.00
72423;BME280;71399;54.146;38.734;2023-07-31T05:47:17;97776.38;;;20.74;100.00
72423;BME280;71399;54.146;38.734;2023-07-31T05:49:44;97750.72;;;20.85;100.00
72423;BME280;71399;54.146;38.734;2023-07-31T05:52:10;97788.56;;;21.12;100.00
72423;BME280;71399;54.146;38.734;2023-07-31T05:54:36;97810.09;;;21.44;100.00
72423;BME280;71399;54.146;38.734;2023-07-31T05:57:02;97906.22;;;21.86;100.00
72423;BME280;71399;54.146;38.734;2023-07-31T05:59:29;98012.19;;;22.20;100.00
72423;BME280;71399;54.146;38.734;2023-07-31T06:01:56;97998.72;;;22.33;100.00
72423;BME280;71399;54.146;38.734;2023-07-31T06:04:22;98093.94;;;22.51;100.00
72423;BME280;71399;54.146;38.734;2023-07-31T06:06:51;98132.41;;;22.84;100.00
72423;BME280;71399;54.146;38.734;2023-07-31T06:09:18;98226.88;;;23.14;100.00
72423;BME280;71399;54.146;38.734;2023-07-31T06:11:44;98234.09;;;23.26;100.00
72423;BME280;71399;54.146;38.734;2023-07-31T06:14:10;98280.59;;;23.26;100.00
72423;BME280;71399;54.146;38.734;2023-07-31T06:16:36;98255.66;;;23.13;100.00
72423;BME280;71399;54.146;38.734;2023-07-31T06:19:03;98266.22;;;23.06;100.00
72423;BME280;71399;54.146;38.734;2023-07-31T06:21:29;98252.66;;;23.03;100.00
72423;BME280;71399;54.146;38.734;2023-07-31T06:23:55;98236.69;;;22.94;100.00
72423;BME280;71399;54.146;38.734;2023-07-31T06:26:22;98248.25;;;22.82;100.00
72423;BME280;71399;54.146;38.734;2023-07-31T06:28:48;98136.72;;;22.72;100.00
72423;BME280;71399;54.146;38.734;2023-07-31T06:31:14;98204.03;;;22.80;100.00
72423;BME280;71399;54.146;38.734;2023-07-31T06:33:40;98167.09;;;22.89;100.00
72423;BME280;71399;54.146;38.734;2023-07-31T06:36:06;98184.66;;;23.15;100.00
72423;BME280;71399;54.146;38.734;2023-07-31T06:38:32;98208.72;;;23.39;100.00
72423;BME280;71399;54.146;38.734;2023-07-31T06:40:58;98239.78;;;23.53;100.00
72423;BME280;71399;54.146;38.734;2023-07-31T06:43:25;98329.75;;;23.55;100.00
72423;BME280;71399;54.146;38.734;2023-07-31T06:45:51;98315.69;;;23.46;100.00
72423;BME280;71399;54.146;38.734;2023-07-31T06:48:17;98273.69;;;23.41;100.00
72423;BME280;71399;54.146;38.734;2023-07-31T06:50:43;98275.50;;;23.37;100.00
72423;BME280;71399;54.146;38.734;2023-07-31T06:53:09;98279.41;;;23.40;100.00
72423;BME280;71399;54.146;38.734;2023-07-31T06:55:35;98312.00;;;23.38;100.00
72423;BME280;71399;54.146;38.734;2023-07-31T06:58:02;98312.91;;;23.42;100.00
72423;BME280;71399;54.146;38.734;2023-07-31T07:00:28;98290.94;;;23.40;100.00
72423;BME280;71399;54.146;38.734;2023-07-31T07:02:54;98284.97;;;23.47;100.00
72423;BME280;71399;54.146;38.734;2023-07-31T07:05:20;98263.75;;;23.58;100.00
72423;BME280;71399;54.146;38.734;2023-07-31T07:07:49;98297.34;;;23.64;100.00
72423;BME280;71399;54.146;38.734;2023-07-31T07:10:16;98356.78;;;23.75;100.00
72423;BME280;71399;54.146;38.734;2023-07-31T07:12:42;98348.56;;;23.83;100.00
72423;BME280;71399;54.146;38.734;2023-07-31T07:15:09;98342.69;;;23.94;100.00
72423;BME280;71399;54.146;38.734;2023-07-31T07:17:35;98344.69;;;23.97;100.00
72423;BME280;71399;54.146;38.734;2023-07-31T07:20:01;98377.41;;;23.99;100.00
72423;BME280;71399;54.146;38.734;2023-07-31T07:22:29;98394.53;;;23.91;100.00
72423;BME280;71399;54.146;38.734;2023-07-31T07:24:56;98453.94;;;23.85;100.00
72423;BME280;71399;54.146;38.734;2023-07-31T07:27:22;98438.78;;;23.93;100.00
72423;BME280;71399;54.146;38.734;2023-07-31T07:29:50;98436.63;;;23.99;100.00
72423;BME280;71399;54.146;38.734;2023-07-31T07:32:20;98426.50;;;24.08;100.00
72423;BME280;71399;54.146;38.734;2023-07-31T07:34:48;98439.44;;;24.02;100.00
72423;BME280;71399;54.146;38.734;2023-07-31T07:37:14;98433.94;;;23.99;100.00
72423;BME280;71399;54.146;38.734;2023-07-31T07:39:40;98380.81;;;24.12;100.00
72423;BME280;71399;54.146;38.734;2023-07-31T07:42:07;98395.47;;;23.98;100.00
72423;BME280;71399;54.146;38.734;2023-07-31T07:44:33;98424.56;;;23.80;100.00
72423;BME280;71399;54.146;38.734;2023-07-31T07:46:59;98376.50;;;23.51;100.00
72423;BME280;71399;54.146;38.734;2023-07-31T07:49:26;98345.09;;;23.55;100.00
72423;BME280;71399;54.146;38.734;2023-07-31T07:51:52;98346.34;;;24.01;100.00
72423;BME280;71399;54.146;38.734;2023-07-31T07:54:18;98383.69;;;24.03;100.00
72423;BME280;71399;54.146;38.734;2023-07-31T07:56:45;98407.00;;;23.83;100.00
72423;BME280;71399;54.146;38.734;2023-07-31T07:59:11;98397.91;;;23.75;100.00
72423;BME280;71399;54.146;38.734;2023-07-31T08:01:37;98422.22;;;23.91;100.00
72423;BME280;71399;54.146;38.734;2023-07-31T08:04:03;98400.38;;;24.25;100.00
72423;BME280;71399;54.146;38.734;2023-07-31T08:06:29;98444.50;;;24.52;100.00
72423;BME280;71399;54.146;38.734;2023-07-31T08:08:56;98426.19;;;24.73;100.00
72423;BME280;71399;54.146;38.734;2023-07-31T08:11:22;98417.16;;;24.82;100.00
72423;BME280;71399;54.146;38.734;2023-07-31T08:13:49;98428.06;;;24.89;100.00
72423;BME280;71399;54.146;38.734;2023-07-31T08:16:16;98456.19;;;24.88;100.00
72423;BME280;71399;54.146;38.734;2023-07-31T08:18:42;98474.78;;;24.77;100.00
72423;BME280;71399;54.146;38.734;2023-07-31T08:21:08;98457.75;;;24.57;100.00
72423;BME280;71399;54.146;38.734;2023-07-31T08:23:34;98469.50;;;24.65;100.00
72423;BME280;71399;54.146;38.734;2023-07-31T08:26:01;98466.69;;;24.77;100.00
72423;BME280;71399;54.146;38.734;2023-07-31T08:28:27;98479.97;;;25.02;100.00
72423;BME280;71399;54.146;38.734;2023-07-31T08:30:53;98489.78;;;25.10;100.00
72423;BME280;71399;54.146;38.734;2023-07-31T08:33:19;98477.88;;;25.11;100.00
72423;BME280;71399;54.146;38.734;2023-07-31T08:35:45;98477.63;;;25.16;100.00
72423;BME280;71399;54.146;38.734;2023-07-31T08:38:12;98486.63;;;25.24;100.00
72423;BME280;71399;54.146;38.734;2023-07-31T08:40:38;98483.53;;;25.38;100.00
72423;BME280;71399;54.146;38.734;2023-07-31T08:43:04;98506.06;;;25.65;100.00
72423;BME280;71399;54.146;38.734;2023-07-31T08:45:32;98487.53;;;25.83;100.00
72423;BME280;71399;54.146;38.734;2023-07-31T08:47:58;98516.63;;;25.74;100.00
72423;BME280;71399;54.146;38.734;2023-07-31T08:50:25;98517.41;;;25.74;100.00
72423;BME280;71399;54.146;38.734;2023-07-31T08:52:52;98529.78;;;25.95;100.00
72423;BME280;71399;54.146;38.734;2023-07-31T08:55:19;98528.84;;;25.87;100.00
72423;BME280;71399;54.146;38.734;2023-07-31T08:57:52;98519.16;;;26.21;100.00
72423;BME280;71399;54.146;38.734;2023-07-31T09:00:21;98520.34;;;26.24;100.00
72423;BME280;71399;54.146;38.734;2023-07-31T09:03:03;98529.59;;;26.03;100.00
72423;BME280;71399;54.146;38.734;2023-07-31T09:05:36;98520.00;;;26.06;100.00
72423;BME280;71399;54.146;38.734;2023-07-31T09:08:04;98516.94;;;26.27;100.00
72423;BME280;71399;54.146;38.734;2023-07-31T09:10:31;98527.28;;;26.44;100.00
72423;BME280;71399;54.146;38.734;2023-07-31T09:12:57;98530.72;;;26.65;100.00
72423;BME280;71399;54.146;38.734;2023-07-31T09:15:24;98545.09;;;26.69;100.00
72423;BME280;71399;54.146;38.734;2023-07-31T09:17:59;98525.28;;;26.84;100.00
72423;BME280;71399;54.146;38.734;2023-07-31T09:20:28;98557.16;;;26.98;100.00
72423;BME280;71399;54.146;38.734;2023-07-31T09:22:55;98541.56;;;26.88;100.00
72423;BME280;71399;54.146;38.734;2023-07-31T09:25:25;98554.72;;;26.47;100.00
72423;BME280;71399;54.146;38.734;2023-07-31T09:28:03;98551.50;;;26.18;100.00
72423;BME280;71399;54.146;38.734;2023-07-31T09:30:29;98543.16;;;26.27;100.00
72423;BME280;71399;54.146;38.734;2023-07-31T09:33:06;98535.22;;;26.57;100.00
72423;BME280;71399;54.146;38.734;2023-07-31T09:35:34;98551.34;;;26.73;100.00
72423;BME280;71399;54.146;38.734;2023-07-31T09:38:06;98560.94;;;26.90;100.00
72423;BME280;71399;54.146;38.734;2023-07-31T09:40:34;98546.44;;;27.02;100.00
72423;BME280;71399;54.146;38.734;2023-07-31T09:43:06;98558.19;;;27.13;100.00
72423;BME280;71399;54.146;38.734;2023-07-31T09:45:38;98544.25;;;27.11;100.00
72423;BME280;71399;54.146;38.734;2023-07-31T09:48:09;98536.91;;;27.11;100.00
72423;BME280;71399;54.146;38.734;2023-07-31T09:50:40;98545.50;;;27.17;100.00
72423;BME280;71399;54.146;38.734;2023-07-31T09:53:08;98542.44;;;27.18;100.00
72423;BME280;71399;54.146;38.734;2023-07-31T09:55:35;98546.38;;;27.25;100.00
72423;BME280;71399;54.146;38.734;2023-07-31T09:58:12;98537.84;;;27.23;100.00
72423;BME280;71399;54.146;38.734;2023-07-31T10:00:38;98554.25;;;27.30;100.00
72423;BME280;71399;54.146;38.734;2023-07-31T10:03:07;98549.59;;;27.30;100.00
72423;BME280;71399;54.146;38.734;2023-07-31T10:05:35;98553.00;;;27.27;100.00
72423;BME280;71399;54.146;38.734;2023-07-31T10:08:02;98561.88;;;27.28;100.00
72423;BME280;71399;54.146;38.734;2023-07-31T10:10:29;98557.00;;;27.33;100.00
72423;BME280;71399;54.146;38.734;2023-07-31T10:12:56;98556.69;;;27.39;100.00
72423;BME280;71399;54.146;38.734;2023-07-31T10:15:23;98552.34;;;27.34;100.00
72423;BME280;71399;54.146;38.734;2023-07-31T10:17:54;98562.50;;;27.41;100.00
72423;BME280;71399;54.146;38.734;2023-07-31T10:20:21;98569.91;;;27.44;100.00
72423;BME280;71399;54.146;38.734;2023-07-31T10:22:48;98553.34;;;27.49;100.00
72423;BME280;71399;54.146;38.734;2023-07-31T10:25:18;98580.22;;;27.38;100.00
72423;BME280;71399;54.146;38.734;2023-07-31T10:27:47;98561.44;;;27.22;100.00
72423;BME280;71399;54.146;38.734;2023-07-31T10:30:17;98570.16;;;27.12;100.00
72423;BME280;71399;54.146;38.734;2023-07-31T10:32:45;98571.25;;;27.07;100.00
72423;BME280;71399;54.146;38.734;2023-07-31T10:35:11;98561.25;;;27.11;100.00
72423;BME280;71399;54.146;38.734;2023-07-31T10:37:40;98568.78;;;27.22;100.00
72423;BME280;71399;54.146;38.734;2023-07-31T10:40:23;98571.84;;;27.20;100.00
72423;BME280;71399;54.146;38.734;2023-07-31T10:42:56;98559.91;;;27.25;100.00
72423;BME280;71399;54.146;38.734;2023-07-31T10:45:37;98570.56;;;27.37;100.00
72423;BME280;71399;54.146;38.734;2023-07-31T10:48:04;98572.88;;;27.35;100.00
72423;BME280;71399;54.146;38.734;2023-07-31T10:50:38;98581.50;;;27.44;100.00
72423;BME280;71399;54.146;38.734;2023-07-31T10:53:04;98576.94;;;27.48;100.00
72423;BME280;71399;54.146;38.734;2023-07-31T10:55:40;98574.00;;;27.61;100.00
72423;BME280;71399;54.146;38.734;2023-07-31T10:58:09;98572.88;;;27.35;100.00
72423;BME280;71399;54.146;38.734;2023-07-31T11:03:19;98560.97;;;26.70;100.00
72423;BME280;71399;54.146;38.734;2023-07-31T11:05:53;98566.59;;;26.85;100.00
72423;BME280;71399;54.146;38.734;2023-07-31T11:08:29;98553.63;;;26.94;100.00
72423;BME280;71399;54.146;38.734;2023-07-31T11:13:33;98553.47;;;26.83;100.00
72423;BME280;71399;54.146;38.734;2023-07-31T11:16:00;98554.28;;;26.64;100.00
72423;BME280;71399;54.146;38.734;2023-07-31T11:18:27;98541.69;;;26.72;100.00
72423;BME280;71399;54.146;38.734;2023-07-31T11:20:53;98553.84;;;26.82;100.00
72423;BME280;71399;54.146;38.734;2023-07-31T11:23:21;98546.84;;;26.80;100.00
72423;BME280;71399;54.146;38.734;2023-07-31T11:25:47;98547.56;;;26.77;100.00
72423;BME280;71399;54.146;38.734;2023-07-31T11:28:15;98544.69;;;26.90;100.00
72423;BME280;71399;54.146;38.734;2023-07-31T11:30:43;98551.34;;;26.96;100.00
72423;BME280;71399;54.146;38.734;2023-07-31T11:33:12;98537.88;;;26.99;100.00
72423;BME280;71399;54.146;38.734;2023-07-31T11:35:46;98535.41;;;27.14;100.00
72423;BME280;71399;54.146;38.734;2023-07-31T11:38:24;98543.53;;;27.14;100.00
72423;BME280;71399;54.146;38.734;2023-07-31T11:40:53;98534.09;;;27.04;100.00
72423;BME280;71399;54.146;38.734;2023-07-31T11:43:20;98529.94;;;27.10;100.00
72423;BME280;71399;54.146;38.734;2023-07-31T11:45:50;98525.66;;;27.09;100.00
72423;BME280;71399;54.146;38.734;2023-07-31T11:48:31;98516.47;;;27.14;100.00
72423;BME280;71399;54.146;38.734;2023-07-31T11:51:06;98527.03;;;27.23;100.00
72423;BME280;71399;54.146;38.734;2023-07-31T11:53:47;98528.72;;;27.31;100.00
72423;BME280;71399;54.146;38.734;2023-07-31T11:56:20;98523.53;;;27.45;100.00
72423;BME280;71399;54.146;38.734;2023-07-31T11:58:50;98527.56;;;27.59;100.00
72423;BME280;71399;54.146;38.734;2023-07-31T12:01:19;98533.84;;;27.66;100.00
72423;BME280;71399;54.146;38.734;2023-07-31T12:03:47;98527.94;;;27.57;100.00
72423;BME280;71399;54.146;38.734;2023-07-31T12:06:13;98531.50;;;27.65;100.00
72423;BME280;71399;54.146;38.734;2023-07-31T12:08:39;98516.75;;;27.59;100.00
72423;BME280;71399;54.146;38.734;2023-07-31T12:11:08;98535.38;;;27.64;100.00
72423;BME280;71399;54.146;38.734;2023-07-31T12:13:37;98532.16;;;27.54;100.00
72423;BME280;71399;54.146;38.734;2023-07-31T12:16:04;98529.44;;;27.54;100.00
72423;BME280;71399;54.146;38.734;2023-07-31T12:18:34;98527.06;;;27.49;100.00
72423;BME280;71399;54.146;38.734;2023-07-31T12:21:02;98544.69;;;27.40;100.00
72423;BME280;71399;54.146;38.734;2023-07-31T12:23:31;98532.44;;;27.23;100.00
72423;BME280;71399;54.146;38.734;2023-07-31T12:26:16;98550.72;;;27.06;100.00
72423;BME280;71399;54.146;38.734;2023-07-31T12:28:45;98538.78;;;26.84;100.00
72423;BME280;71399;54.146;38.734;2023-07-31T12:31:15;98538.13;;;26.68;100.00
72423;BME280;71399;54.146;38.734;2023-07-31T12:33:46;98536.06;;;26.61;100.00
72423;BME280;71399;54.146;38.734;2023-07-31T12:36:14;98530.13;;;26.52;100.00
72423;BME280;71399;54.146;38.734;2023-07-31T12:38:41;98526.63;;;26.51;100.00
72423;BME280;71399;54.146;38.734;2023-07-31T12:41:08;98521.69;;;26.76;100.00
72423;BME280;71399;54.146;38.734;2023-07-31T12:43:39;98529.03;;;27.03;100.00
72423;BME280;71399;54.146;38.734;2023-07-31T12:46:06;98527.06;;;26.99;100.00
72423;BME280;71399;54.146;38.734;2023-07-31T12:48:37;98531.75;;;27.03;100.00
72423;BME280;71399;54.146;38.734;2023-07-31T12:51:03;98522.44;;;27.00;100.00
72423;BME280;71399;54.146;38.734;2023-07-31T12:53:30;98526.31;;;26.76;100.00
72423;BME280;71399;54.146;38.734;2023-07-31T12:55:56;98520.56;;;26.58;100.00
72423;BME280;71399;54.146;38.734;2023-07-31T12:58:23;98502.69;;;26.50;100.00
72423;BME280;71399;54.146;38.734;2023-07-31T13:00:49;98506.63;;;26.56;100.00